Pagina principale
METAR-TAF:

METAR-TAF

Aeroporti :

Souillac

Brive-la-Gaillarde, Francia

latitudine: 45-02-28N, longitudine: 001-28-59E, altezza: 311 m

Osservazione

Il bollettino è stato emesso 14 minuti fa, alle 17:30 UTC
Vento 7 kt da nord, variando fra ovest/nord-ovest e nord/nord-est
Temperature 28°C
Umidità 28%
Pressione 1011 hPa
Visibilità 10 km o più
nessuna nube inferiore a 1500 m e nessun cumulonembo

METAR: LFSL 311730Z AUTO 36007KT 300V030 CAVOK 28/08 Q1011

Ora: 19:44 (17:44 UTC)


TAF: mancante

Osservazioni e previsioni meteorologiche di più di 4000 aeroporti (messaggi METAR e TAF).

Le stazioni disponibili sono rappresentate dai dischi gialli e rossi sulla carta.

Puntare il mouse per vedere il nome della stazione.

Clicca sopra per visualizzare le osservazioni e previsioni meteorologiche.

Per cambiare la mappa : fare clic sui pulsanti verdi con una croce nera per ingrandire, il pulsante verde con un trattino per diminuire, o sulla freccia verde per le mappe adiacenti.


METAR-TAF: